Time;durP1;ratioP1;P1;durP2;ratioP2;P2;SDS_P1;SDS_P2;PMS_P1;PMS_P2;Temp;Humidity;BMP_temperature;BMP_pressure;BME280_temperature;BME280_humidity;BME280_pressure;Samples;Min_cycle;Max_cycle;Signal;HPM_P1;HPM_P2
2023/01/09 00:01:41;;;;;;;1.05;0.30;;;;;;;9.54;76.90;97572.81;5132569;27;20059;-47
2023/01/09 00:04:07;;;;;;;1.75;0.30;;;;;;;9.47;78.04;97545.13;5132636;27;20023;-47
2023/01/09 00:06:34;;;;;;;0.22;0.20;;;;;;;9.43;79.88;97533.50;5132616;27;20068;-47
2023/01/09 00:09:00;;;;;;;0.50;0.25;;;;;;;9.45;77.01;97529.63;5132798;27;20098;-48
2023/01/09 00:11:26;;;;;;;0.45;0.32;;;;;;;9.59;75.08;97556.44;5132591;27;20593;-48
2023/01/09 00:13:51;;;;;;;0.65;0.35;;;;;;;9.74;72.95;97553.44;5131444;28;20027;-48
2023/01/09 00:16:17;;;;;;;0.10;0.10;;;;;;;9.84;72.80;97548.47;5132507;28;20098;-48
2023/01/09 00:18:43;;;;;;;0.22;0.20;;;;;;;9.90;72.00;97565.91;5131161;28;20404;-48
2023/01/09 00:21:10;;;;;;;0.25;0.20;;;;;;;9.97;72.09;97584.16;5132155;27;20531;-48
2023/01/09 00:23:36;;;;;;;0.75;0.20;;;;;;;9.97;73.20;97589.38;5131000;28;20015;-48
2023/01/09 00:26:10;;;;;;;0.32;0.20;;;;;;;9.99;71.67;97577.66;5131374;28;20031;-48
2023/01/09 00:28:36;;;;;;;0.93;0.35;;;;;;;9.95;71.82;97607.94;5131015;28;20519;-47
2023/01/09 00:31:03;;;;;;;0.32;0.20;;;;;;;9.90;71.92;97622.75;5131066;28;20027;-48
2023/01/09 00:33:33;;;;;;;0.70;0.30;;;;;;;9.79;72.20;97640.81;5135498;27;20019;-47
2023/01/09 00:35:59;;;;;;;0.50;0.20;;;;;;;9.72;71.43;97627.00;5136226;27;20106;-47
2023/01/09 00:38:25;;;;;;;0.73;0.20;;;;;;;9.64;72.38;97629.13;5136205;27;20058;-48
2023/01/09 00:40:51;;;;;;;0.52;0.20;;;;;;;9.58;70.91;97636.06;5136169;27;20564;-47
2023/01/09 00:43:19;;;;;;;0.90;0.30;;;;;;;9.53;72.16;97655.03;5136094;27;20054;-47
2023/01/09 00:45:45;;;;;;;0.63;0.50;;;;;;;9.39;73.84;97659.59;5136087;27;20034;-48
2023/01/09 00:48:25;;;;;;;0.50;0.17;;;;;;;9.27;73.84;97665.78;5136044;27;20389;-47
2023/01/09 00:50:53;;;;;;;2.45;0.38;;;;;;;9.19;73.34;97661.63;5135916;27;20027;-47
2023/01/09 00:53:22;;;;;;;0.75;0.32;;;;;;;9.16;73.03;97677.78;5135953;27;20580;-48
2023/01/09 00:55:49;;;;;;;1.13;0.70;;;;;;;9.06;73.85;97678.28;5134570;27;20027;-47
2023/01/09 00:58:15;;;;;;;0.50;0.25;;;;;;;9.01;73.16;97696.41;5135877;27;20024;-47
2023/01/09 01:00:41;;;;;;;1.20;0.40;;;;;;;8.96;72.65;97676.13;5135707;27;20180;-47
2023/01/09 01:03:06;;;;;;;2.63;0.30;;;;;;;8.88;73.37;97673.00;5134345;27;20126;-47
2023/01/09 01:08:18;;;;;;;0.77;0.35;;;;;;;8.69;75.06;97687.81;5135741;27;20025;-47
2023/01/09 01:10:45;;;;;;;0.45;0.30;;;;;;;8.65;74.79;97703.13;5135606;27;20047;-47
2023/01/09 01:13:11;;;;;;;0.20;0.20;;;;;;;8.69;75.17;97716.59;5134245;27;20019;-47
2023/01/09 01:15:39;;;;;;;0.30;0.30;;;;;;;8.68;74.56;97728.09;5134231;27;20096;-47
2023/01/09 01:18:05;;;;;;;2.75;0.30;;;;;;;8.63;75.00;97726.06;5135558;27;20031;-47
2023/01/09 01:20:31;;;;;;;1.67;0.60;;;;;;;8.64;75.55;97739.97;5135146;27;20083;-47
2023/01/09 01:22:56;;;;;;;1.38;0.50;;;;;;;8.72;75.46;97747.56;5134002;27;20031;-47
2023/01/09 01:25:22;;;;;;;1.08;0.38;;;;;;;8.75;75.22;97753.19;5135340;27;20110;-47
2023/01/09 01:27:48;;;;;;;1.27;0.30;;;;;;;8.75;74.97;97753.19;5133971;27;20024;-47
2023/01/09 01:30:16;;;;;;;0.90;0.35;;;;;;;8.68;75.18;97754.25;5135261;27;20038;-47
2023/01/09 01:32:42;;;;;;;1.50;0.40;;;;;;;8.60;75.59;97765.75;5133943;27;20019;-47
2023/01/09 01:35:08;;;;;;;1.30;0.40;;;;;;;8.54;75.75;97780.47;5135175;27;20030;-47
2023/01/09 01:37:35;;;;;;;0.20;0.17;;;;;;;8.51;75.87;97785.28;5135108;27;20030;-47
2023/01/09 01:40:01;;;;;;;0.65;0.40;;;;;;;8.53;76.15;97797.19;5133749;27;20023;-47
2023/01/09 01:42:27;;;;;;;0.40;0.30;;;;;;;8.51;76.44;97799.19;5133697;27;20030;-47
2023/01/09 01:45:27;;;;;;;1.48;0.52;;;;;;;8.56;76.85;97807.19;5115760;27;20019;-47
2023/01/09 01:48:02;;;;;;;0.60;0.30;;;;;;;8.60;76.64;97813.63;5100590;27;20086;-47
2023/01/09 01:50:59;;;;;;;0.30;0.30;;;;;;;8.62;76.98;97825.69;5116538;27;20458;-47
2023/01/09 01:53:42;;;;;;;0.32;0.25;;;;;;;8.64;77.01;97836.75;5159737;27;20031;-47
2023/01/09 01:56:23;;;;;;;1.65;0.50;;;;;;;8.69;76.73;97840.34;5133437;27;20497;-47
2023/01/09 01:59:06;;;;;;;0.95;0.40;;;;;;;8.78;76.66;97841.69;5133474;27;20031;-47
2023/01/09 02:01:33;;;;;;;1.27;0.40;;;;;;;8.91;76.70;97843.44;5134761;27;20113;-45
2023/01/09 02:04:00;;;;;;;1.15;0.40;;;;;;;9.04;76.20;97847.81;5133193;27;20034;-45
2023/01/09 02:06:28;;;;;;;0.47;0.35;;;;;;;9.08;75.76;97856.03;5134585;27;20028;-45
2023/01/09 02:08:54;;;;;;;0.65;0.25;;;;;;;9.13;75.40;97851.75;5134571;27;20047;-45
2023/01/09 02:11:20;;;;;;;3.20;0.50;;;;;;;9.19;75.06;97857.97;5134527;27;20023;-45
2023/01/09 02:13:47;;;;;;;0.75;0.22;;;;;;;9.23;75.43;97864.38;5099050;27;20027;-45
2023/01/09 02:16:55;;;;;;;0.60;0.30;;;;;;;9.23;74.34;97874.84;5134325;27;20023;-45
2023/01/09 02:19:39;;;;;;;0.30;0.30;;;;;;;9.20;75.08;97876.09;5126071;27;20030;-47
2023/01/09 02:22:23;;;;;;;1.50;0.38;;;;;;;9.20;74.61;97878.69;5134057;27;20047;-47
2023/01/09 02:25:16;;;;;;;3.83;0.43;;;;;;;9.21;74.25;97882.13;5134032;27;20023;-47
2023/01/09 02:27:57;;;;;;;0.90;0.32;;;;;;;9.20;74.60;97897.03;5134196;27;20396;-47
2023/01/09 02:30:49;;;;;;;0.28;0.22;;;;;;;9.25;74.09;97906.06;5132958;27;20030;-47
2023/01/09 02:33:27;;;;;;;3.25;0.40;;;;;;;9.34;73.63;97913.47;5134095;27;20031;-47
2023/01/09 02:36:30;;;;;;;1.27;0.50;;;;;;;9.43;73.62;97918.44;5134043;27;20038;-47
2023/01/09 02:39:17;;;;;;;0.55;0.25;;;;;;;9.46;73.48;97918.03;5132539;27;20023;-47
2023/01/09 02:42:02;;;;;;;0.30;0.30;;;;;;;9.43;72.98;97921.06;5133862;27;20031;-47
2023/01/09 02:44:34;;;;;;;0.35;0.35;;;;;;;9.29;73.53;97917.72;5133637;27;20019;-47
2023/01/09 02:47:28;;;;;;;1.02;0.40;;;;;;;9.05;73.40;97921.88;5133781;27;20030;-47
2023/01/09 02:50:01;;;;;;;0.85;0.40;;;;;;;8.82;74.06;97914.56;5132261;27;20122;-47
2023/01/09 02:52:29;;;;;;;0.40;0.40;;;;;;;8.60;74.22;97910.38;5133840;27;20125;-48
2023/01/09 02:55:06;;;;;;;1.50;0.70;;;;;;;8.43;74.70;97918.88;5133546;27;20080;-47
2023/01/09 02:57:55;;;;;;;1.92;0.70;;;;;;;8.20;74.55;97914.88;5132228;27;20027;-47
2023/01/09 03:00:35;;;;;;;0.68;0.35;;;;;;;8.04;75.65;97910.88;5133765;27;20493;-47
2023/01/09 03:03:28;;;;;;;0.73;0.60;;;;;;;7.87;75.79;97927.97;5132116;27;20396;-47
2023/01/09 03:06:07;;;;;;;1.05;0.50;;;;;;;7.70;76.24;97938.03;5133383;27;20076;-47
2023/01/09 03:08:38;;;;;;;4.18;1.08;;;;;;;7.57;76.91;97946.66;5133434;27;20039;-47
2023/01/09 03:11:07;;;;;;;0.73;0.60;;;;;;;7.51;76.60;97943.03;5133412;27;20030;-47
2023/01/09 03:13:44;;;;;;;1.63;0.90;;;;;;;7.52;77.67;97943.84;5133282;27;20023;-47
2023/01/09 03:16:14;;;;;;;2.58;0.60;;;;;;;7.68;77.59;97942.66;5133266;27;20046;-47
2023/01/09 03:18:42;;;;;;;2.10;0.75;;;;;;;7.83;76.79;97945.06;5133533;27;20023;-47
2023/01/09 03:21:10;;;;;;;1.48;0.80;;;;;;;7.80;76.03;97956.72;5132894;27;20043;-47
2023/01/09 03:23:51;;;;;;;1.17;0.63;;;;;;;7.73;76.78;97953.31;5133045;27;20099;-47
2023/01/09 03:26:19;;;;;;;0.77;0.60;;;;;;;7.65;76.52;97959.53;5132991;27;20531;-47
2023/01/09 03:28:45;;;;;;;2.03;0.85;;;;;;;7.70;76.92;97964.94;5133038;27;20023;-47
2023/01/09 03:31:12;;;;;;;4.70;1.10;;;;;;;7.79;76.18;97962.97;5131671;27;20019;-47
2023/01/09 03:33:37;;;;;;;1.40;0.80;;;;;;;7.82;76.40;97972.19;5133051;27;20027;-47
2023/01/09 03:36:03;;;;;;;2.70;1.10;;;;;;;7.85;76.67;97969.16;5131580;27;20054;-47
2023/01/09 03:38:29;;;;;;;1.33;0.77;;;;;;;7.78;76.48;97979.63;5132860;27;20018;-47
2023/01/09 03:40:55;;;;;;;2.17;0.75;;;;;;;7.58;76.61;97975.16;5166124;27;20035;-47
2023/01/09 03:43:20;;;;;;;0.70;0.70;;;;;;;7.32;77.20;97968.09;5131472;27;20026;-47
2023/01/09 03:45:46;;;;;;;3.30;0.65;;;;;;;7.07;78.24;97972.25;5131499;27;20393;-47
2023/01/09 03:48:12;;;;;;;1.35;0.52;;;;;;;6.91;79.13;97970.78;5131488;27;20056;-47
2023/01/09 03:50:37;;;;;;;2.63;0.73;;;;;;;6.77;79.80;97973.31;5132655;28;20507;-47
2023/01/09 03:53:03;;;;;;;7.10;1.15;;;;;;;6.64;79.93;97990.69;5132795;27;20115;-47
2023/01/09 03:55:29;;;;;;;3.33;0.93;;;;;;;6.52;80.35;97987.81;5132718;27;20023;-47
2023/01/09 03:57:54;;;;;;;1.70;0.70;;;;;;;6.43;80.94;97984.53;5131402;28;20027;-47
2023/01/09 04:00:21;;;;;;;0.52;0.50;;;;;;;6.36;81.35;97996.75;5132726;27;20434;-47
2023/01/09 04:02:46;;;;;;;2.10;0.60;;;;;;;6.30;82.04;97987.88;5131240;28;20016;-47
2023/01/09 04:05:12;;;;;;;2.20;0.73;;;;;;;6.31;82.74;97984.25;5132571;28;20400;-47
2023/01/09 04:07:38;;;;;;;1.52;0.80;;;;;;;6.41;82.43;97983.94;5133074;27;20081;-47
2023/01/09 04:10:04;;;;;;;1.83;1.08;;;;;;;6.40;82.47;97987.56;5136816;27;20111;-47
2023/01/09 04:12:30;;;;;;;1.85;1.20;;;;;;;6.42;82.56;97976.91;5135446;27;20047;-47
2023/01/09 04:14:56;;;;;;;0.98;0.80;;;;;;;6.53;83.25;97982.41;5136723;27;20066;-47
2023/01/09 04:17:21;;;;;;;2.45;1.13;;;;;;;6.62;82.65;97985.69;5136641;27;20192;-47
2023/01/09 04:19:47;;;;;;;1.63;0.82;;;;;;;6.69;82.80;97996.13;5136627;27;20031;-47
2023/01/09 04:22:12;;;;;;;3.67;1.35;;;;;;;6.72;82.57;97999.16;5136470;27;20108;-47
2023/01/09 04:24:38;;;;;;;3.60;0.90;;;;;;;6.75;82.01;98006.59;5136390;27;20066;-47
2023/01/09 04:27:04;;;;;;;2.88;1.02;;;;;;;6.76;81.86;98015.22;5136482;27;20076;-47
2023/01/09 04:29:29;;;;;;;1.27;0.82;;;;;;;6.77;81.20;98019.44;5136445;27;20396;-47
2023/01/09 04:31:55;;;;;;;2.33;0.98;;;;;;;6.83;81.20;98015.28;5136675;27;20384;-47
2023/01/09 04:34:24;;;;;;;3.45;1.10;;;;;;;7.01;81.37;98007.72;5134993;27;20046;-47
2023/01/09 04:36:53;;;;;;;2.22;0.93;;;;;;;7.18;80.46;98009.00;5136194;27;20030;-47
2023/01/09 04:39:19;;;;;;;2.60;1.00;;;;;;;7.21;79.60;98010.44;5169710;27;20031;-47
2023/01/09 04:41:48;;;;;;;1.42;0.65;;;;;;;7.16;80.29;98021.44;5136122;27;20481;-47
2023/01/09 04:44:26;;;;;;;3.72;0.80;;;;;;;7.18;80.04;98026.47;5169449;27;20032;-47
2023/01/09 04:46:54;;;;;;;2.53;1.10;;;;;;;7.29;81.02;98031.13;5136052;27;20031;-47
2023/01/09 04:49:20;;;;;;;2.97;0.88;;;;;;;7.48;78.97;98034.00;5136079;27;20026;-47
2023/01/09 04:51:46;;;;;;;2.47;0.90;;;;;;;7.74;78.13;98041.91;5135955;27;20025;-47
2023/01/09 04:54:12;;;;;;;4.40;1.05;;;;;;;7.81;78.15;98041.94;5134650;27;20087;-47
2023/01/09 04:56:38;;;;;;;3.70;1.40;;;;;;;7.86;77.25;98046.53;5135810;27;20023;-47
2023/01/09 04:59:05;;;;;;;5.00;1.48;;;;;;;7.87;77.27;98055.97;5136163;27;20027;-47
2023/01/09 05:01:31;;;;;;;3.47;0.98;;;;;;;7.91;78.08;98065.06;5135824;27;20023;-47
2023/01/09 05:03:57;;;;;;;2.42;0.90;;;;;;;7.89;77.78;98065.25;5134410;27;20035;-47
2023/01/09 05:06:22;;;;;;;2.50;0.60;;;;;;;7.90;77.47;98068.66;5134380;27;20031;-47
2023/01/09 05:08:48;;;;;;;2.40;1.58;;;;;;;7.91;77.82;98060.63;5134378;27;20100;-47
2023/01/09 05:11:14;;;;;;;2.33;0.82;;;;;;;7.96;77.73;98068.66;5134322;27;20019;-47
2023/01/09 05:13:40;;;;;;;1.63;0.90;;;;;;;7.95;77.49;98068.88;5135637;27;20031;-47
2023/01/09 05:16:06;;;;;;;1.05;0.82;;;;;;;7.89;77.60;98057.41;5135578;27;20023;-47
2023/01/09 05:18:32;;;;;;;1.13;0.70;;;;;;;7.86;76.90;98064.84;5134403;27;20031;-47
2023/01/09 05:20:57;;;;;;;3.00;0.90;;;;;;;7.72;76.96;98062.19;5135064;27;20054;-47
2023/01/09 05:23:23;;;;;;;2.03;0.90;;;;;;;7.56;77.05;98065.94;5133949;27;20042;-47
2023/01/09 05:25:49;;;;;;;3.22;0.70;;;;;;;7.43;77.20;98067.72;5135368;27;20019;-47
2023/01/09 05:28:14;;;;;;;1.25;0.80;;;;;;;7.29;76.47;98075.50;5133994;27;20031;-47
2023/01/09 05:30:40;;;;;;;2.50;0.80;;;;;;;7.13;76.59;98070.59;5133887;27;20091;-47
2023/01/09 05:33:06;;;;;;;5.38;1.50;;;;;;;6.92;76.95;98074.91;5135252;27;20030;-47
2023/01/09 05:35:32;;;;;;;1.23;0.90;;;;;;;6.68;77.54;98072.72;5133824;27;20019;-47
2023/01/09 05:37:57;;;;;;;3.42;1.00;;;;;;;6.47;78.23;98081.41;5133815;27;20027;-47
2023/01/09 05:40:23;;;;;;;2.67;1.15;;;;;;;6.31;78.98;98085.88;5133748;27;20476;-47
2023/01/09 05:42:49;;;;;;;3.03;1.50;;;;;;;6.18;79.19;98083.19;5133694;27;20023;-47
2023/01/09 05:45:15;;;;;;;3.35;1.10;;;;;;;6.10;79.98;98081.50;5134972;27;20030;-47
2023/01/09 05:47:43;;;;;;;1.95;1.10;;;;;;;6.04;80.60;98079.66;5133637;27;20023;-47
2023/01/09 05:50:09;;;;;;;2.33;1.00;;;;;;;6.05;80.16;98075.25;5134924;27;20067;-47
2023/01/09 05:52:35;;;;;;;2.03;1.15;;;;;;;6.05;80.96;98077.84;5133468;27;20422;-47
2023/01/09 05:55:00;;;;;;;6.20;1.40;;;;;;;6.05;81.10;98094.28;5116388;27;20020;-47
2023/01/09 05:57:27;;;;;;;2.25;1.20;;;;;;;6.08;81.76;98100.94;5134790;27;20027;-47
2023/01/09 05:59:53;;;;;;;5.72;1.40;;;;;;;5.98;81.83;98103.84;5134600;27;20571;-47
2023/01/09 06:02:19;;;;;;;2.25;1.20;;;;;;;5.88;82.22;98098.91;5134627;27;20023;-47
2023/01/09 06:04:45;;;;;;;1.40;1.08;;;;;;;5.75;82.43;98106.56;5133255;27;20023;-47
2023/01/09 06:07:10;;;;;;;3.97;1.38;;;;;;;5.62;82.87;98111.63;5133200;27;20046;-47
2023/01/09 06:09:36;;;;;;;5.80;1.75;;;;;;;5.58;82.94;98116.38;5134535;27;20071;-47
2023/01/09 06:12:02;;;;;;;4.60;1.23;;;;;;;5.55;83.38;98122.78;5134491;27;20023;-47
2023/01/09 06:14:28;;;;;;;6.50;1.65;;;;;;;5.59;82.99;98112.78;5133097;27;20038;-47
2023/01/09 06:16:54;;;;;;;5.43;1.42;;;;;;;5.71;83.04;98113.13;5134312;27;20027;-47
2023/01/09 06:19:20;;;;;;;4.20;1.90;;;;;;;5.82;82.78;98114.47;5132980;27;20020;-47
2023/01/09 06:21:46;;;;;;;5.13;1.60;;;;;;;5.89;82.73;98118.72;5132746;27;20073;-47
2023/01/09 06:24:11;;;;;;;3.25;1.30;;;;;;;5.99;82.81;98121.06;5132817;27;20133;-46
2023/01/09 06:26:37;;;;;;;3.17;1.90;;;;;;;6.13;82.56;98129.81;5133086;27;20020;-47
2023/01/09 06:29:03;;;;;;;6.88;2.00;;;;;;;6.11;81.23;98134.41;5134121;27;20016;-47
2023/01/09 06:31:28;;;;;;;6.85;2.35;;;;;;;6.15;82.40;98125.22;5133688;27;20489;-47
2023/01/09 06:33:54;;;;;;;2.90;1.77;;;;;;;6.28;81.22;98133.19;5133974;27;20110;-47
2023/01/09 06:36:20;;;;;;;4.60;1.98;;;;;;;6.46;81.57;98132.75;5133794;27;20027;-47
2023/01/09 06:38:46;;;;;;;6.97;2.00;;;;;;;6.67;81.09;98136.31;5132609;27;20016;-47
2023/01/09 06:41:11;;;;;;;11.95;2.22;;;;;;;6.80;80.26;98136.41;5134108;27;20027;-47
2023/01/09 06:43:37;;;;;;;4.78;1.50;;;;;;;6.88;79.73;98138.91;5133764;27;20102;-47
2023/01/09 06:46:04;;;;;;;4.35;1.90;;;;;;;6.99;78.37;98129.72;5134053;27;20431;-47
2023/01/09 06:48:31;;;;;;;4.43;1.50;;;;;;;7.13;77.48;98134.03;5133681;27;20020;-47
2023/01/09 06:50:56;;;;;;;3.08;1.73;;;;;;;7.23;76.95;98128.47;5132393;27;20019;-47
2023/01/09 06:53:22;;;;;;;4.10;1.63;;;;;;;7.32;76.23;98132.53;5133690;27;20484;-47
2023/01/09 06:55:48;;;;;;;5.05;1.77;;;;;;;7.30;76.66;98137.13;5133651;27;20114;-47
2023/01/09 06:58:14;;;;;;;3.08;1.55;;;;;;;7.28;76.44;98141.72;5133678;27;20429;-47
2023/01/09 07:00:40;;;;;;;4.93;1.50;;;;;;;7.19;76.66;98148.13;5133614;27;20047;-47
2023/01/09 07:03:06;;;;;;;2.58;1.70;;;;;;;7.15;76.00;98133.84;5132137;27;20106;-47
2023/01/09 07:05:37;;;;;;;8.23;2.63;;;;;;;7.10;75.50;98138.81;5133403;27;20051;-47
2023/01/09 07:08:03;;;;;;;7.80;2.22;;;;;;;7.02;75.93;98131.16;5133512;27;20102;-47
2023/01/09 07:10:29;;;;;;;6.47;1.80;;;;;;;6.95;75.62;98138.94;5132067;27;20471;-47
2023/01/09 07:12:54;;;;;;;4.00;1.83;;;;;;;6.74;74.92;98142.38;5133336;27;20019;-47
2023/01/09 07:15:20;;;;;;;5.30;2.00;;;;;;;6.53;74.91;98145.84;5133259;27;20214;-47
2023/01/09 07:17:47;;;;;;;5.97;2.35;;;;;;;6.35;75.04;98151.47;5131950;27;20051;-47
2023/01/09 07:20:13;;;;;;;4.95;2.22;;;;;;;6.20;75.84;98147.13;5131576;27;20023;-47
2023/01/09 07:22:38;;;;;;;4.40;2.03;;;;;;;6.13;76.21;98135.03;5166565;27;20038;-47
2023/01/09 07:25:05;;;;;;;8.43;2.10;;;;;;;6.18;77.06;98127.47;5133055;27;20496;-47
2023/01/09 07:27:30;;;;;;;7.90;2.75;;;;;;;6.29;77.43;98128.78;5132994;27;20087;-47
2023/01/09 07:29:56;;;;;;;5.88;2.60;;;;;;;6.37;77.52;98128.66;5133044;27;20020;-47
2023/01/09 07:32:22;;;;;;;5.45;2.40;;;;;;;6.39;77.71;98135.28;5131667;27;20020;-47
2023/01/09 07:34:48;;;;;;;8.30;2.83;;;;;;;6.51;76.74;98132.19;5132962;27;20030;-47
2023/01/09 07:37:14;;;;;;;4.53;2.30;;;;;;;6.59;76.21;98143.28;5132900;27;20423;-47
2023/01/09 07:39:40;;;;;;;5.65;2.65;;;;;;;6.63;75.55;98148.13;5132936;27;20027;-47
2023/01/09 07:42:05;;;;;;;8.10;2.40;;;;;;;6.66;75.62;98138.13;5132156;27;20038;-47
2023/01/09 07:44:31;;;;;;;7.05;2.60;;;;;;;6.66;74.97;98134.69;5131383;27;20024;-47
2023/01/09 07:46:57;;;;;;;9.07;2.70;;;;;;;6.65;75.49;98139.09;5131503;27;20106;-47
2023/01/09 07:49:23;;;;;;;6.60;2.80;;;;;;;6.67;75.96;98128.50;5132803;27;20109;-47
2023/01/09 07:51:48;;;;;;;19.05;2.95;;;;;;;6.81;75.64;98132.81;5132739;27;20072;-47
2023/01/09 07:54:15;;;;;;;11.88;3.85;;;;;;;7.12;75.29;98132.44;5132747;28;20038;-47
2023/01/09 07:56:41;;;;;;;12.80;2.45;;;;;;;7.29;73.46;98119.88;5132723;27;20370;-47
2023/01/09 07:59:07;;;;;;;13.00;3.00;;;;;;;7.36;72.35;98115.50;5114794;28;20423;-47
2023/01/09 08:01:33;;;;;;;13.35;2.65;;;;;;;7.26;72.26;98125.47;5132685;27;20080;-47
2023/01/09 08:03:59;;;;;;;10.43;3.63;;;;;;;7.19;72.86;98127.25;5132619;27;20385;-47
2023/01/09 08:06:25;;;;;;;10.05;2.63;;;;;;;7.19;73.42;98128.03;5131263;28;20080;-47
2023/01/09 08:08:50;;;;;;;11.43;4.15;;;;;;;7.18;74.00;98130.84;5166215;27;20028;-47
2023/01/09 08:11:16;;;;;;;8.63;3.20;;;;;;;7.22;74.45;98142.50;5132491;28;20024;-47
2023/01/09 08:13:42;;;;;;;7.72;3.08;;;;;;;7.21;75.28;98143.50;5132572;27;20101;-47
2023/01/09 08:16:07;;;;;;;9.88;3.28;;;;;;;7.18;76.60;98144.72;5132506;27;20023;-47
2023/01/09 08:18:33;;;;;;;17.60;2.97;;;;;;;7.17;76.95;98142.28;5132474;28;20019;-47
2023/01/09 08:20:59;;;;;;;20.17;3.20;;;;;;;7.17;77.00;98139.69;5132255;27;20421;-47
2023/01/09 08:23:25;;;;;;;17.15;3.00;;;;;;;7.16;76.33;98144.09;5132385;27;20051;-47
2023/01/09 08:25:51;;;;;;;10.65;2.90;;;;;;;7.17;76.45;98143.09;5132439;27;20072;-47
2023/01/09 08:28:17;;;;;;;10.18;2.80;;;;;;;7.16;76.13;98148.50;5131260;28;20504;-47
2023/01/09 08:30:43;;;;;;;12.95;3.42;;;;;;;7.05;75.65;98152.44;5131096;28;20031;-47
2023/01/09 08:33:08;;;;;;;13.02;3.45;;;;;;;7.00;76.34;98153.03;5132381;27;20026;-47
2023/01/09 08:35:35;;;;;;;8.75;2.83;;;;;;;6.96;77.17;98153.56;5132338;27;20020;-47
2023/01/09 08:38:01;;;;;;;13.43;3.40;;;;;;;6.97;76.07;98158.59;5132323;27;20389;-47
2023/01/09 08:40:27;;;;;;;8.82;3.17;;;;;;;6.98;75.72;98170.66;5132346;27;20019;-47
2023/01/09 08:48:21;;;;;;;6.13;3.03;;;;;;;7.06;76.65;98181.94;5132323;28;20034;-47
2023/01/09 08:50:46;;;;;;;16.92;3.55;;;;;;;7.04;77.12;98176.13;5132230;27;20024;-47
2023/01/09 08:53:12;;;;;;;13.05;3.15;;;;;;;7.13;77.59;98178.41;5133106;27;20042;-47
2023/01/09 08:55:38;;;;;;;10.85;2.33;;;;;;;7.25;77.94;98183.09;5134672;27;20035;-47
2023/01/09 08:58:04;;;;;;;4.53;1.90;;;;;;;7.37;77.04;98186.78;5135925;27;20024;-47
2023/01/09 09:00:29;;;;;;;11.82;1.73;;;;;;;7.53;76.77;98186.47;5169191;27;20412;-47
2023/01/09 09:02:57;;;;;;;6.40;1.67;;;;;;;7.70;75.54;98181.72;5135768;27;20023;-47
2023/01/09 09:05:25;;;;;;;5.82;1.30;;;;;;;7.93;73.14;98181.44;5135788;27;20072;-47
2023/01/09 09:07:55;;;;;;;9.88;2.00;;;;;;;8.19;69.71;98185.94;5135735;27;20064;-47
2023/01/09 09:10:22;;;;;;;6.90;1.55;;;;;;;8.50;68.41;98192.44;5135901;27;20019;-47
2023/01/09 09:12:49;;;;;;;11.38;1.52;;;;;;;8.65;67.09;98178.38;5134621;27;20019;-47
2023/01/09 09:15:22;;;;;;;8.20;1.30;;;;;;;8.79;67.07;98201.75;5134506;27;20027;-47
2023/01/09 09:17:49;;;;;;;8.70;1.30;;;;;;;8.93;66.12;98194.72;5135560;27;20031;-47
2023/01/09 09:20:15;;;;;;;7.32;1.48;;;;;;;8.97;63.05;98201.16;5133811;27;20031;-47
2023/01/09 09:22:41;;;;;;;9.55;1.63;;;;;;;9.03;63.55;98211.81;5134225;27;20404;-47
2023/01/09 09:25:07;;;;;;;6.00;1.02;;;;;;;9.15;62.07;98220.66;5168760;27;20037;-47
2023/01/09 09:27:35;;;;;;;10.32;1.92;;;;;;;9.36;61.63;98223.06;5135347;27;20477;-48
2023/01/09 09:30:01;;;;;;;4.13;1.27;;;;;;;10.40;60.91;98204.75;5135249;27;20019;-47
2023/01/09 09:32:27;;;;;;;4.85;1.25;;;;;;;12.09;58.08;98212.56;5135245;27;20102;-48
2023/01/09 09:34:52;;;;;;;5.20;1.17;;;;;;;12.79;53.17;98211.19;5135252;27;20111;-48
2023/01/09 09:37:18;;;;;;;7.38;1.45;;;;;;;12.71;52.71;98216.78;5133778;27;20062;-47
2023/01/09 09:39:44;;;;;;;8.05;1.35;;;;;;;13.35;52.49;98211.72;5135109;27;20026;-45
2023/01/09 09:45:34;;;;;;;3.60;0.93;;;;;;;14.81;51.44;98213.25;5135352;27;20083;-45
2023/01/09 09:48:28;;;;;;;7.40;1.20;;;;;;;15.56;47.42;98222.56;5135024;27;20054;-45
2023/01/09 09:51:32;;;;;;;6.13;1.35;;;;;;;14.80;44.43;98219.56;5134977;27;20030;-45
2023/01/09 09:54:12;;;;;;;4.82;1.00;;;;;;;13.25;47.20;98233.34;5071312;28;20037;-45
2023/01/09 09:56:49;;;;;;;8.93;1.52;;;;;;;13.12;49.13;98225.66;5071411;28;20064;-45
2023/01/09 09:59:20;;;;;;;8.00;1.73;;;;;;;14.09;46.47;98222.50;5071384;28;20047;-46
2023/01/09 10:02:03;;;;;;;3.25;1.00;;;;;;;14.54;45.08;98234.16;5071282;28;20048;-45
2023/01/09 10:04:32;;;;;;;6.63;1.30;;;;;;;14.18;45.30;98231.66;5053885;28;20029;-45
2023/01/09 10:07:10;;;;;;;5.47;1.20;;;;;;;13.47;46.07;98238.09;5071136;28;20029;-46
2023/01/09 10:09:49;;;;;;;11.52;1.75;;;;;;;13.85;48.18;98240.22;5054384;28;20036;-46
2023/01/09 10:12:28;;;;;;;5.93;1.05;;;;;;;15.86;45.70;98244.41;5071120;28;20040;-46
2023/01/09 10:14:59;;;;;;;4.10;1.20;;;;;;;17.21;40.19;98229.63;5071083;28;20115;-46
2023/01/09 10:17:43;;;;;;;6.72;1.17;;;;;;;17.37;37.57;98232.09;5071041;28;20521;-46
2023/01/09 10:20:23;;;;;;;3.22;1.20;;;;;;;16.75;37.45;98235.31;5070577;28;20056;-46
2023/01/09 10:22:54;;;;;;;7.43;1.38;;;;;;;15.84;39.15;98239.38;5054114;28;20029;-45
2023/01/09 10:25:44;;;;;;;4.25;0.90;;;;;;;16.19;40.45;98243.47;5070831;28;20028;-46
2023/01/09 10:28:16;;;;;;;5.00;1.08;;;;;;;16.74;38.31;98239.00;5099558;27;20039;-46
2023/01/09 10:31:01;;;;;;;3.97;1.10;;;;;;;17.76;38.02;98228.34;5134195;27;20027;-46
2023/01/09 10:34:02;;;;;;;8.75;1.05;;;;;;;18.46;36.78;98228.09;5134074;27;20027;-46
2023/01/09 10:36:46;;;;;;;5.13;0.85;;;;;;;18.52;35.70;98227.81;5132741;27;20476;-46
2023/01/09 10:39:51;;;;;;;5.63;1.10;;;;;;;17.28;36.46;98232.84;5134004;27;20023;-45
2023/01/09 10:42:32;;;;;;;3.83;0.90;;;;;;;16.18;38.16;98234.75;5070368;28;20036;-46
2023/01/09 10:45:16;;;;;;;5.05;1.20;;;;;;;15.55;39.17;98242.13;5070433;28;20082;-46
2023/01/09 10:47:43;;;;;;;6.28;1.73;;;;;;;14.89;40.62;98249.84;5070498;28;20078;-45
2023/01/09 10:50:22;;;;;;;5.50;1.77;;;;;;;14.19;42.03;98243.81;5070256;28;20028;-45
2023/01/09 10:52:53;;;;;;;4.82;1.00;;;;;;;13.54;43.03;98244.03;5070333;28;20051;-45
2023/01/09 10:55:43;;;;;;;8.90;1.83;;;;;;;13.11;44.61;98237.25;5070231;28;20024;-46
2023/01/09 10:58:20;;;;;;;4.68;1.00;;;;;;;12.83;44.76;98236.03;5070121;28;20036;-45
2023/01/09 11:00:47;;;;;;;3.92;1.17;;;;;;;12.52;45.38;98230.00;5053351;28;20036;-45
2023/01/09 11:03:15;;;;;;;5.95;1.30;;;;;;;12.31;46.31;98238.38;5053244;28;20140;-45
2023/01/09 11:05:41;;;;;;;4.50;1.40;;;;;;;12.01;46.24;98233.91;5070082;28;20039;-45
2023/01/09 11:08:18;;;;;;;7.20;1.50;;;;;;;11.80;47.11;98235.91;5070089;28;20151;-45
2023/01/09 11:10:52;;;;;;;10.13;1.55;;;;;;;11.80;46.51;98237.75;5070048;28;20028;-45
2023/01/09 11:13:21;;;;;;;7.95;1.10;;;;;;;11.87;47.03;98238.50;5053174;28;20062;-45
2023/01/09 11:16:03;;;;;;;6.25;1.15;;;;;;;11.92;46.15;98233.41;5069800;28;20512;-45
2023/01/09 11:18:29;;;;;;;4.47;1.85;;;;;;;12.11;45.95;98241.28;5100115;27;20088;-45
2023/01/09 11:20:55;;;;;;;5.85;1.08;;;;;;;12.26;45.05;98244.31;5133078;27;20476;-45
2023/01/09 11:23:33;;;;;;;5.13;1.15;;;;;;;12.34;45.93;98240.59;5133077;27;20106;-45
2023/01/09 11:26:01;;;;;;;7.68;1.40;;;;;;;12.67;45.52;98240.13;5131776;27;20034;-45
2023/01/09 11:28:27;;;;;;;5.18;0.77;;;;;;;12.76;45.76;98227.47;5131976;27;20075;-45
2023/01/09 11:31:02;;;;;;;9.18;1.33;;;;;;;12.61;44.88;98230.50;5133085;27;20023;-45
2023/01/09 11:33:36;;;;;;;4.23;1.17;;;;;;;12.47;45.23;98227.25;5131756;27;20023;-46
2023/01/09 11:36:06;;;;;;;8.57;1.38;;;;;;;12.65;45.22;98207.94;5114607;27;20027;-45
2023/01/09 11:38:50;;;;;;;6.32;1.48;;;;;;;12.55;45.17;98208.50;5133240;27;20037;-46
2023/01/09 11:41:23;;;;;;;4.93;1.23;;;;;;;12.86;45.88;98211.91;5132935;27;20031;-45
2023/01/09 11:43:55;;;;;;;5.38;0.88;;;;;;;13.72;43.61;98204.38;5132915;27;20024;-46
2023/01/09 11:46:39;;;;;;;6.78;1.30;;;;;;;13.84;42.87;98187.69;5131528;27;20015;-46
2023/01/09 11:49:21;;;;;;;8.38;1.30;;;;;;;13.31;43.06;98189.50;5133112;27;20511;-46
2023/01/09 11:52:10;;;;;;;3.83;1.23;;;;;;;12.94;44.06;98192.34;5132871;27;20067;-46
2023/01/09 11:54:42;;;;;;;6.43;1.27;;;;;;;12.74;44.78;98205.81;5132846;27;20046;-46
2023/01/09 11:57:11;;;;;;;5.20;1.35;;;;;;;12.99;45.25;98195.06;5131459;28;20039;-46
2023/01/09 11:59:37;;;;;;;7.68;1.98;;;;;;;13.48;44.52;98200.13;5132700;27;20043;-45
2023/01/09 12:02:30;;;;;;;7.50;1.20;;;;;;;13.79;44.41;98186.56;5131371;28;20026;-46
2023/01/09 12:05:10;;;;;;;5.05;1.55;;;;;;;13.71;43.77;98173.75;5132636;28;20133;-45